Time;durP1;ratioP1;P1;durP2;ratioP2;P2;SDS_P1;SDS_P2;PMS_P1;PMS_P2;Temp;Humidity;BMP_temperature;BMP_pressure;BME280_temperature;BME280_humidity;BME280_pressure;Samples;Min_cycle;Max_cycle;Signal;HPM_P1;HPM_P2
2021/12/27 14:11:52;;;;;;;;;62.75;51.25;;;;;-2.71;72.75;102027.38;6231108;22;8817;-83
2021/12/27 14:14:41;;;;;;;;;44.50;42.75;;;;;-2.70;72.86;102027.16;6260882;23;8773;-82
2021/12/27 14:17:43;;;;;;;;;51.25;47.50;;;;;-2.79;73.38;102014.91;6249707;23;8828;-81
2021/12/27 14:20:39;;;;;;;;;59.25;51.25;;;;;-2.67;73.84;102018.66;6228566;23;8882;-83
2021/12/27 14:23:37;;;;;;;;;55.25;49.00;;;;;-2.47;73.80;102015.88;6231144;23;8922;-81
2021/12/27 14:26:34;;;;;;;;;71.75;57.25;;;;;-2.58;73.40;102020.09;6253452;23;8777;-83
2021/12/27 14:29:31;;;;;;;;;69.75;59.50;;;;;-2.63;73.77;102010.91;6229607;23;8800;-82
2021/12/27 14:32:27;;;;;;;;;70.50;59.00;;;;;-2.64;73.75;102014.66;6250083;23;8789;-81
2021/12/27 14:35:44;;;;;;;;;70.50;60.50;;;;;-2.68;73.54;102013.44;6229620;23;8781;-83
2021/12/27 14:38:40;;;;;;;;;75.75;61.00;;;;;-2.71;73.61;102025.50;6249201;23;8793;-83
2021/12/27 14:41:37;;;;;;;;;86.50;65.50;;;;;-2.61;73.57;102038.63;6228631;23;8777;-82
2021/12/27 14:44:52;;;;;;;;;71.75;57.00;;;;;-2.62;74.00;102040.50;6244862;23;8785;-81
2021/12/27 14:47:48;;;;;;;;;77.50;61.25;;;;;-2.58;73.19;102044.47;6246891;23;8825;-82
2021/12/27 14:50:46;;;;;;;;;81.75;60.50;;;;;-2.44;72.70;102047.16;6245598;23;8827;-82
2021/12/27 14:53:45;;;;;;;;;45.00;41.75;;;;;-2.47;72.88;102056.53;6246165;23;8824;-81
2021/12/27 14:56:40;;;;;;;;;54.50;47.50;;;;;-2.44;72.41;102053.41;6250898;23;8845;-81
2021/12/27 14:59:36;;;;;;;;;77.75;63.00;;;;;-2.48;72.50;102048.59;6253219;23;8829;-83
2021/12/27 15:02:32;;;;;;;;;73.00;60.50;;;;;-2.60;71.59;102051.97;6232853;23;8774;-83
2021/12/27 15:05:28;;;;;;;;;61.25;52.50;;;;;-2.73;71.71;102060.09;6231190;23;8824;-82
2021/12/27 15:08:26;;;;;;;;;43.25;32.00;;;;;-2.95;72.14;102053.22;6250569;23;8829;-81
2021/12/27 15:11:22;;;;;;;;;85.00;67.00;;;;;-2.93;72.37;102064.69;6250025;23;8805;-82
2021/12/27 15:14:18;;;;;;;;;84.50;69.25;;;;;-3.05;72.46;102061.78;6250459;23;8824;-83
2021/12/27 15:17:14;;;;;;;;;86.50;69.00;;;;;-3.11;73.56;102059.88;6229912;23;8789;-82
2021/12/27 15:20:11;;;;;;;;;86.50;66.25;;;;;-3.21;73.47;102067.59;6231694;23;8801;-83
2021/12/27 15:23:06;;;;;;;;;84.75;66.75;;;;;-3.40;73.67;102056.50;6233483;23;8777;-80
2021/12/27 15:26:03;;;;;;;;;97.75;77.75;;;;;-3.28;73.60;102058.63;6236083;23;8762;-84
2021/12/27 15:28:59;;;;;;;;;102.50;77.50;;;;;-3.45;73.42;102060.84;6251342;23;8905;-83
2021/12/27 15:31:55;;;;;;;;;90.00;69.00;;;;;-3.38;73.54;102067.13;6254376;23;8858;-83
2021/12/27 15:34:50;;;;;;;;;96.50;73.50;;;;;-3.26;74.14;102060.06;6227410;23;8895;-80
2021/12/27 15:37:47;;;;;;;;;110.00;86.25;;;;;-3.27;74.12;102065.69;6228232;23;8781;-82
2021/12/27 15:40:43;;;;;;;;;74.25;47.00;;;;;-3.13;74.54;102057.41;6248196;23;8781;-83
2021/12/27 15:43:39;;;;;;;;;91.00;73.50;;;;;-3.19;75.07;102050.09;6262432;23;8773;-83
2021/12/27 15:46:34;;;;;;;;;99.75;75.00;;;;;-3.27;75.17;102055.69;6233297;23;8936;-80
2021/12/27 15:49:31;;;;;;;;;102.50;79.00;;;;;-3.22;75.47;102061.34;6248310;23;8776;-83
2021/12/27 15:52:28;;;;;;;;;105.75;82.00;;;;;-3.09;74.09;102052.38;6232813;23;8816;-82
2021/12/27 15:55:24;;;;;;;;;98.75;74.50;;;;;-3.31;74.56;102051.72;6227692;23;9502;-82
2021/12/27 15:58:20;;;;;;;;;79.25;63.75;;;;;-3.44;73.85;102057.13;6227399;23;8804;-81
2021/12/27 16:01:16;;;;;;;;;81.25;67.75;;;;;-3.52;73.44;102065.44;6226093;23;8773;-82
2021/12/27 16:04:12;;;;;;;;;76.75;64.25;;;;;-3.36;73.23;102076.72;6244553;23;9482;-81
2021/12/27 16:07:12;;;;;;;;;70.00;59.00;;;;;-3.20;73.67;102074.66;6225732;23;8815;-84
2021/12/27 16:10:08;;;;;;;;;64.00;52.25;;;;;-3.30;73.59;102068.78;6245377;23;8809;-82
2021/12/27 16:13:04;;;;;;;;;68.00;58.00;;;;;-3.17;72.87;102061.53;6244789;23;8837;-82
2021/12/27 16:16:05;;;;;;;;;95.75;75.00;;;;;-3.16;74.09;102059.66;6247130;22;8789;-83
2021/12/27 16:19:01;;;;;;;;;102.00;77.00;;;;;-3.16;73.54;102055.06;6225790;23;8797;-81
2021/12/27 16:21:57;;;;;;;;;112.50;87.00;;;;;-3.13;73.34;102054.69;6244033;23;8801;-82
2021/12/27 16:24:52;;;;;;;;;108.25;79.00;;;;;-3.08;73.10;102059.47;6243506;23;8812;-82
2021/12/27 16:27:49;;;;;;;;;94.50;74.25;;;;;-3.28;73.33;102054.03;6224978;23;8781;-83
2021/12/27 16:31:10;;;;;;;;;107.25;84.75;;;;;-3.28;73.24;102040.50;6247724;23;8781;-83
2021/12/27 16:34:09;;;;;;;;;14.25;5.00;;;;;-3.37;73.77;102033.63;6248964;23;9537;-83
2021/12/27 16:37:05;;;;;;;;;89.50;71.50;;;;;-3.41;73.86;102032.38;6244581;23;8785;-82
2021/12/27 16:40:12;;;;;;;;;103.25;78.75;;;;;-3.29;74.24;102028.03;6224069;23;8773;-81
2021/12/27 16:43:11;;;;;;;;;99.75;78.25;;;;;-3.20;74.07;102026.78;6244382;23;8795;-80
2021/12/27 16:46:07;;;;;;;;;110.50;92.00;;;;;-3.19;74.48;102017.63;6228314;23;8781;-81
2021/12/27 16:49:09;;;;;;;;;114.00;98.50;;;;;-3.23;74.36;102013.66;6246065;23;8951;-81
2021/12/27 16:52:07;;;;;;;;;133.00;117.25;;;;;-3.34;74.19;102008.03;6245750;23;8843;-81
2021/12/27 16:55:06;;;;;;;;;135.75;112.25;;;;;-3.17;73.73;102015.53;6224529;23;8786;-82
2021/12/27 16:58:03;;;;;;;;;148.25;119.25;;;;;-3.28;73.90;102007.22;6242840;23;8808;-82
2021/12/27 17:00:58;;;;;;;;;145.25;121.00;;;;;-3.30;73.88;102017.38;6223833;23;8809;-83
2021/12/27 17:03:54;;;;;;;;;141.50;121.75;;;;;-3.34;74.54;102010.75;6226045;23;8852;-82
2021/12/27 17:06:50;;;;;;;;;144.25;116.00;;;;;-3.34;74.09;102010.75;6248152;23;8773;-80
2021/12/27 17:09:46;;;;;;;;;104.25;77.00;;;;;-3.48;73.65;102013.41;6245387;22;8811;-82
2021/12/27 17:12:42;;;;;;;;;133.25;104.25;;;;;-3.34;73.73;102021.56;6242789;23;8821;-81
2021/12/27 17:15:39;;;;;;;;;135.75;111.25;;;;;-3.38;73.82;102016.53;6244216;23;8812;-80
2021/12/27 17:18:34;;;;;;;;;113.00;95.00;;;;;-3.35;73.21;102026.13;6224103;23;8829;-81
2021/12/27 17:21:30;;;;;;;;;116.25;99.75;;;;;-3.30;72.94;102023.63;6227723;23;8797;-81
2021/12/27 17:24:26;;;;;;;;;107.50;88.50;;;;;-3.17;73.10;102026.34;6244795;23;8773;-81
2021/12/27 17:27:22;;;;;;;;;114.50;89.75;;;;;-3.24;73.45;102030.94;6243259;23;8793;-82
2021/12/27 17:30:20;;;;;;;;;115.75;97.25;;;;;-3.09;73.22;102034.28;6244259;23;8875;-81
2021/12/27 17:33:17;;;;;;;;;112.00;85.75;;;;;-3.09;73.54;102044.25;6244264;23;8900;-82
2021/12/27 17:36:12;;;;;;;;;123.25;110.00;;;;;-3.09;73.07;102045.09;6244217;23;8851;-82
2021/12/27 17:39:11;;;;;;;;;125.25;105.00;;;;;-3.11;73.54;102038.22;6242917;23;8789;-82
2021/12/27 17:42:08;;;;;;;;;109.50;93.75;;;;;-3.12;73.11;102037.41;6242645;23;8793;-81
2021/12/27 17:45:09;;;;;;;;;105.50;84.75;;;;;-3.40;73.21;102025.91;6224207;23;8831;-81
2021/12/27 17:48:05;;;;;;;;;117.50;99.25;;;;;-3.34;72.80;102019.69;6243800;23;9602;-80
2021/12/27 17:51:03;;;;;;;;;113.75;86.50;;;;;-3.54;73.42;102002.59;6243019;23;8793;-80
2021/12/27 17:54:01;;;;;;;;;88.50;58.50;;;;;-3.55;73.77;101998.22;6242352;23;8813;-82
2021/12/27 17:56:58;;;;;;;;;113.50;84.00;;;;;-3.66;73.62;102002.38;6223720;23;9523;-83
2021/12/27 17:59:55;;;;;;;;;98.25;75.50;;;;;-3.83;73.86;101987.53;6241377;23;8785;-81
2021/12/27 18:02:52;;;;;;;;;84.25;69.25;;;;;-3.98;74.23;101979.63;6243343;23;8869;-81
2021/12/27 18:05:47;;;;;;;;;74.25;62.75;;;;;-4.11;74.24;101964.19;6223658;23;8789;-83
2021/12/27 18:08:44;;;;;;;;;64.25;51.75;;;;;-1.85;89.61;101970.19;6245718;23;8785;-81
2021/12/27 18:11:45;;;;;;;;;85.25;63.75;;;;;-1.58;91.25;101990.69;6223381;23;8816;-82
2021/12/27 18:14:41;;;;;;;;;98.75;72.75;;;;;-1.09;88.19;101986.34;6261195;23;8811;-83
2021/12/27 18:17:37;;;;;;;;;104.50;75.00;;;;;-0.37;89.46;101987.53;6250958;23;8780;-83
2021/12/27 18:20:32;;;;;;;;;99.00;75.50;;;;;-0.02;86.72;102000.50;6255422;23;8805;-82
2021/12/27 18:23:28;;;;;;;;;88.75;72.00;;;;;-0.66;83.75;102010.00;6267707;22;8782;-81
2021/12/27 18:26:25;;;;;;;;;94.50;73.50;;;;;-0.51;84.55;102039.53;6251285;23;8789;-82
2021/12/27 18:29:20;;;;;;;;;91.50;69.25;;;;;-0.58;82.31;102045.88;6253857;22;8773;-82
2021/12/27 18:32:16;;;;;;;;;89.00;68.50;;;;;-0.49;79.55;102035.53;6271586;22;8789;-83
2021/12/27 18:35:12;;;;;;;;;92.75;71.00;;;;;-1.42;72.94;102032.75;6247077;23;8808;-82
2021/12/27 18:38:08;;;;;;;;;77.25;65.00;;;;;-2.27;70.37;102032.94;6252357;23;8793;-82
2021/12/27 18:40:50;;;;;;;;;86.00;65.25;;;;;-3.06;71.62;102034.91;6246948;22;8792;-82
2021/12/27 18:43:18;;;;;;;;;83.25;61.00;;;;;-3.47;73.07;102017.78;6279446;22;8781;-81
2021/12/27 18:46:15;;;;;;;;;93.25;71.75;;;;;-3.72;74.20;102001.31;6247185;22;8838;-80
2021/12/27 18:48:56;;;;;;;;;86.00;68.00;;;;;-3.89;75.01;101999.19;6247098;22;8804;-79
2021/12/27 18:51:52;;;;;;;;;82.00;65.00;;;;;-4.08;75.21;102003.47;6246530;23;8800;-80
2021/12/27 18:54:48;;;;;;;;;76.00;61.75;;;;;-3.93;74.90;102004.97;6244879;23;8813;-78
2021/12/27 18:57:28;;;;;;;;;90.50;64.25;;;;;-4.18;75.80;102000.31;6277416;22;9410;-83
2021/12/27 18:59:56;;;;;;;;;80.00;65.00;;;;;-4.05;76.06;101993.09;6245203;23;8843;-81
2021/12/27 19:02:51;;;;;;;;;63.50;52.25;;;;;-4.33;75.63;102003.97;6246552;23;8895;-81
2021/12/27 19:05:47;;;;;;;;;28.50;21.75;;;;;-4.27;76.00;102002.34;6244710;23;8824;-81
2021/12/27 19:08:46;;;;;;;;;99.75;74.00;;;;;-4.08;76.26;102011.56;6244267;23;8812;-81
2021/12/27 19:11:51;;;;;;;;;100.75;72.50;;;;;-4.10;76.41;102011.78;6245913;23;8793;-82
2021/12/27 19:14:47;;;;;;;;;99.25;76.50;;;;;-3.99;75.69;102015.75;6244850;23;8789;-82
2021/12/27 19:17:44;;;;;;;;;122.75;94.00;;;;;-3.89;76.31;102018.94;6225057;23;8805;-82
2021/12/27 19:20:40;;;;;;;;;112.25;87.75;;;;;-3.97;76.14;102016.41;6246081;23;8808;-82
2021/12/27 19:23:35;;;;;;;;;113.00;82.75;;;;;-3.92;76.56;102019.31;6225044;23;8789;-82
2021/12/27 19:26:32;;;;;;;;;92.50;66.00;;;;;-4.09;75.84;102010.75;6245134;23;8827;-82
2021/12/27 19:29:27;;;;;;;;;92.75;71.50;;;;;-4.07;75.73;102011.38;6244759;23;8781;-82
2021/12/27 19:32:23;;;;;;;;;100.50;71.25;;;;;-3.95;75.53;102019.75;6245046;23;8915;-81
2021/12/27 19:35:21;;;;;;;;;98.00;72.50;;;;;-3.78;75.34;102012.94;6243370;23;8815;-81
2021/12/27 19:38:19;;;;;;;;;92.50;69.00;;;;;-3.61;74.89;102007.13;6225029;23;8794;-81
2021/12/27 19:41:15;;;;;;;;;96.75;73.00;;;;;-3.71;75.13;102005.66;6224849;23;8813;-82
2021/12/27 19:44:11;;;;;;;;;102.75;78.00;;;;;-3.59;74.34;102000.50;6243387;23;8789;-81
2021/12/27 19:47:07;;;;;;;;;101.75;72.75;;;;;-3.52;74.69;102011.34;6226013;23;8843;-82
2021/12/27 19:50:07;;;;;;;;;93.25;72.00;;;;;-3.44;74.49;101993.03;6224713;23;8789;-82
2021/12/27 19:53:03;;;;;;;;;103.00;77.75;;;;;-3.30;74.22;101993.03;6224939;23;8777;-82
2021/12/27 19:55:59;;;;;;;;;85.50;70.00;;;;;-3.32;73.95;101987.00;6244545;23;8884;-80
2021/12/27 19:58:55;;;;;;;;;88.25;66.75;;;;;-3.28;74.04;101978.28;6224014;23;8821;-81
2021/12/27 20:01:52;;;;;;;;;83.00;66.50;;;;;-3.31;73.61;101985.97;6225129;23;8777;-83
2021/12/27 20:04:48;;;;;;;;;73.00;60.00;;;;;-3.16;73.19;101997.41;6223997;23;8805;-82
2021/12/27 20:07:44;;;;;;;;;71.75;56.25;;;;;-3.09;73.28;101996.38;6245384;23;8801;-82
2021/12/27 20:10:41;;;;;;;;;74.75;59.00;;;;;-3.21;73.17;101987.22;6244268;23;9505;-81
2021/12/27 20:13:37;;;;;;;;;66.75;56.00;;;;;-3.35;73.48;101985.56;6244791;23;8839;-80
2021/12/27 20:16:34;;;;;;;;;72.75;53.50;;;;;-3.20;73.52;101986.19;6244750;23;8805;-82
2021/12/27 20:19:31;;;;;;;;;89.25;67.00;;;;;-3.08;73.42;101979.09;6226914;23;8820;-82
2021/12/27 20:22:26;;;;;;;;;92.25;72.00;;;;;-3.00;73.27;101975.34;6245897;23;8859;-82
2021/12/27 20:25:27;;;;;;;;;103.75;82.50;;;;;-3.06;73.49;101978.91;6228887;23;8793;-82
2021/12/27 20:28:23;;;;;;;;;93.00;64.50;;;;;-3.01;72.96;101997.22;6227701;23;8812;-82
2021/12/27 20:31:21;;;;;;;;;111.25;84.75;;;;;-3.26;74.16;101988.88;6227491;23;8811;-83
2021/12/27 20:34:20;;;;;;;;;110.50;80.75;;;;;-3.27;74.26;101990.75;6244580;23;8808;-82
2021/12/27 20:37:18;;;;;;;;;93.00;71.50;;;;;-3.54;74.20;101983.66;6222790;23;8797;-82
2021/12/27 20:40:15;;;;;;;;;104.25;74.50;;;;;-3.45;74.12;101985.09;6243900;23;9546;-81
2021/12/27 20:43:11;;;;;;;;;103.00;78.50;;;;;-3.38;74.21;101983.25;6244186;23;8797;-81
2021/12/27 20:46:06;;;;;;;;;95.50;72.50;;;;;-3.44;74.28;101971.41;6224148;23;8781;-80
2021/12/27 20:49:17;;;;;;;;;90.50;71.00;;;;;-3.35;74.22;101972.03;6227420;23;9443;-82
2021/12/27 20:52:13;;;;;;;;;87.75;70.25;;;;;-3.20;73.39;101961.00;6243987;23;8816;-81
2021/12/27 20:55:11;;;;;;;;;82.25;61.50;;;;;-3.21;73.07;101951.22;6249684;23;8816;-80
2021/12/27 20:58:06;;;;;;;;;72.75;56.75;;;;;-3.26;73.62;101965.38;6258296;23;8785;-81
2021/12/27 21:01:03;;;;;;;;;74.00;57.75;;;;;-3.22;73.71;101955.81;6244751;23;8801;-81
2021/12/27 21:04:00;;;;;;;;;105.25;75.50;;;;;-3.25;73.70;101969.72;6244559;23;8778;-82
2021/12/27 21:06:57;;;;;;;;;123.25;96.00;;;;;-3.10;73.67;101964.13;6243699;23;8797;-81
2021/12/27 21:09:56;;;;;;;;;113.75;92.25;;;;;-3.21;73.13;101960.19;6243771;23;8801;-81
2021/12/27 21:12:51;;;;;;;;;97.00;75.00;;;;;-3.30;73.66;101972.22;6243250;23;8785;-80
2021/12/27 21:15:48;;;;;;;;;113.00;93.00;;;;;-3.26;73.64;101953.72;6244060;23;8862;-81
2021/12/27 21:18:45;;;;;;;;;110.50;85.50;;;;;-3.36;74.37;101946.84;6224401;23;8835;-82
2021/12/27 21:21:40;;;;;;;;;113.75;78.75;;;;;-3.32;74.03;101936.44;6243969;23;8793;-81
2021/12/27 21:24:37;;;;;;;;;108.00;87.25;;;;;-3.17;73.99;101942.47;6224062;23;8813;-81
2021/12/27 21:27:33;;;;;;;;;109.25;83.75;;;;;-3.18;74.09;101934.56;6243797;23;8896;-81
2021/12/27 21:30:29;;;;;;;;;87.00;62.25;;;;;-3.04;74.38;101927.25;6223651;23;9503;-82
2021/12/27 21:33:24;;;;;;;;;85.00;54.75;;;;;-2.88;74.06;101924.09;6223852;23;8793;-82
2021/12/27 21:36:21;;;;;;;;;103.75;80.75;;;;;-2.80;74.13;101913.88;6243929;23;8786;-82
2021/12/27 21:39:16;;;;;;;;;111.00;78.75;;;;;-2.76;74.03;101908.88;6243647;23;8866;-82
2021/12/27 21:42:12;;;;;;;;;107.50;83.00;;;;;-2.71;73.46;101919.88;6223964;23;9550;-82
2021/12/27 21:45:08;;;;;;;;;100.75;75.50;;;;;-2.81;73.91;101908.69;6223649;23;8820;-82
2021/12/27 21:48:05;;;;;;;;;99.75;76.00;;;;;-2.71;73.21;101911.75;6224322;23;8879;-82
2021/12/27 21:51:00;;;;;;;;;101.00;74.50;;;;;-2.89;73.93;101900.78;6244243;23;8789;-81
2021/12/27 21:53:56;;;;;;;;;89.50;71.75;;;;;-2.90;73.92;101896.44;6243179;23;8880;-82
2021/12/27 21:56:54;;;;;;;;;89.25;69.25;;;;;-2.93;73.63;101894.13;6244192;23;8793;-82
2021/12/27 21:59:50;;;;;;;;;85.00;68.25;;;;;-3.06;73.70;101897.72;6244223;23;8816;-81
2021/12/27 22:02:47;;;;;;;;;88.00;69.25;;;;;-3.05;73.76;101893.13;6246516;23;8817;-81
2021/12/27 22:05:43;;;;;;;;;88.25;70.00;;;;;-2.78;74.15;101881.16;6226083;23;8794;-81
2021/12/27 22:08:40;;;;;;;;;93.25;72.25;;;;;-2.71;73.88;101883.84;6226100;23;8793;-81
2021/12/27 22:11:36;;;;;;;;;86.75;66.50;;;;;-2.90;73.69;101878.31;6245685;23;8836;-81
2021/12/27 22:14:33;;;;;;;;;92.50;72.25;;;;;-2.84;73.52;101888.28;6245748;23;8793;-80
2021/12/27 22:17:29;;;;;;;;;75.50;60.75;;;;;-2.85;73.92;101880.34;6225830;23;9526;-82
2021/12/27 22:20:27;;;;;;;;;66.75;56.25;;;;;-2.89;73.50;101881.84;6241853;23;8789;-82
2021/12/27 22:23:23;;;;;;;;;92.25;71.50;;;;;-2.92;73.53;101884.94;6226615;23;9521;-82
2021/12/27 22:26:19;;;;;;;;;101.50;76.50;;;;;-2.66;73.22;101889.47;6245831;23;8789;-81
2021/12/27 22:29:14;;;;;;;;;86.25;70.00;;;;;-2.82;72.80;101885.34;6245691;23;8781;-82
2021/12/27 22:32:10;;;;;;;;;87.75;70.50;;;;;-2.75;72.92;101871.81;6225641;23;8781;-81
2021/12/27 22:35:06;;;;;;;;;85.50;69.50;;;;;-2.46;72.09;101873.94;6245762;23;8801;-82
2021/12/27 22:38:03;;;;;;;;;91.75;72.75;;;;;-2.57;72.33;101883.59;6245892;23;8789;-82
2021/12/27 22:41:00;;;;;;;;;87.25;68.75;;;;;-2.63;73.04;101879.03;6245509;23;8886;-81
2021/12/27 22:43:55;;;;;;;;;80.50;66.00;;;;;-2.58;72.77;101878.41;6244681;23;8793;-81
2021/12/27 22:46:51;;;;;;;;;72.50;55.50;;;;;-2.70;73.00;101867.38;6225447;23;8801;-81
2021/12/27 22:49:47;;;;;;;;;80.75;63.25;;;;;-2.86;73.88;101871.41;6245387;23;8892;-81
2021/12/27 22:52:43;;;;;;;;;78.00;59.50;;;;;-2.92;74.22;101864.13;6229179;23;8793;-81
2021/12/27 22:55:38;;;;;;;;;80.25;59.50;;;;;-2.91;74.20;101873.94;6225560;23;8835;-81
2021/12/27 22:58:34;;;;;;;;;67.50;53.00;;;;;-2.83;74.44;101876.41;6245836;23;8804;-82
2021/12/27 23:01:31;;;;;;;;;74.50;60.75;;;;;-2.84;74.72;101868.47;6245652;23;8778;-80
2021/12/27 23:04:28;;;;;;;;;64.25;54.75;;;;;-2.85;74.38;101875.78;6245146;23;8797;-81
2021/12/27 23:07:23;;;;;;;;;77.75;62.50;;;;;-2.89;74.54;101865.59;6244269;23;8801;-81
2021/12/27 23:10:21;;;;;;;;;70.75;58.25;;;;;-3.08;74.56;101849.19;6243331;23;8797;-81
2021/12/27 23:13:17;;;;;;;;;84.00;63.50;;;;;-2.93;74.98;101832.69;6246564;23;8803;-81
2021/12/27 23:16:14;;;;;;;;;26.75;26.75;;;;;-3.21;75.53;101829.47;6245355;23;8882;-80
2021/12/27 23:19:10;;;;;;;;;84.75;66.75;;;;;-3.27;75.48;101824.88;6245032;23;8774;-82
2021/12/27 23:22:06;;;;;;;;;92.25;70.75;;;;;-3.14;75.79;101817.56;6245637;23;8789;-81
2021/12/27 23:25:03;;;;;;;;;119.75;90.75;;;;;-3.20;75.76;101799.47;6245313;23;8812;-80
2021/12/27 23:28:03;;;;;;;;;110.50;89.25;;;;;-3.08;76.00;101802.34;6224568;23;8801;-80
2021/12/27 23:31:00;;;;;;;;;94.75;72.50;;;;;-3.15;76.08;101790.69;6243533;23;9487;-80
2021/12/27 23:34:01;;;;;;;;;87.25;69.25;;;;;-3.17;76.05;101800.91;6242917;23;8805;-81
2021/12/27 23:36:57;;;;;;;;;92.75;72.00;;;;;-3.12;76.28;101804.66;6245234;23;8797;-81
2021/12/27 23:39:54;;;;;;;;;91.00;70.50;;;;;-3.06;75.53;101802.16;6245194;23;8797;-81
2021/12/27 23:42:52;;;;;;;;;93.00;71.25;;;;;-3.24;76.05;101797.41;6244701;23;8852;-81
2021/12/27 23:45:48;;;;;;;;;102.75;78.75;;;;;-3.09;75.92;101806.09;6244648;23;8785;-81
2021/12/27 23:48:44;;;;;;;;;100.00;79.25;;;;;-2.98;76.30;101804.63;6225097;23;9557;-82
2021/12/27 23:51:42;;;;;;;;;101.75;79.00;;;;;-3.00;75.75;101804.81;6244037;23;8820;-81
2021/12/27 23:54:38;;;;;;;;;118.50;98.00;;;;;-3.01;77.05;101807.72;6224805;23;8872;-81
2021/12/27 23:57:35;;;;;;;;;104.75;79.00;;;;;-3.14;77.71;101817.56;6243598;23;8793;-81
